Time;durP1;ratioP1;P1;durP2;ratioP2;P2;SDS_P1;SDS_P2;PMS_P1;PMS_P2;Temp;Humidity;BMP_temperature;BMP_pressure;BME280_temperature;BME280_humidity;BME280_pressure;Samples;Min_cycle;Max_cycle;Signal;HPM_P1;HPM_P2
2023/02/13 00:01:38;;;;;;;89.53;29.33;;;;;;;;;;6149098;23;20243;-89
2023/02/13 00:04:43;;;;;;;83.90;27.30;;;;;;;;;;6149236;23;20180;-90
2023/02/13 00:07:49;;;;;;;93.97;29.77;;;;;;;;;;6148128;23;20169;-90
2023/02/13 00:10:55;;;;;;;131.93;34.80;;;;;;;;;;6149189;23;20215;-89
2023/02/13 00:14:00;;;;;;;85.83;27.27;;;;;;;;;;6148243;23;20239;-88
2023/02/13 00:17:07;;;;;;;122.60;35.27;;;;;;;;;;6149087;23;20180;-88
2023/02/13 00:20:12;;;;;;;86.37;27.80;;;;;;;;;;6149704;23;20235;-90
2023/02/13 00:23:19;;;;;;;83.00;27.43;;;;;;;;;;6167800;23;20208;-91
2023/02/13 00:26:24;;;;;;;88.00;28.20;;;;;;;;;;6149615;23;20188;-91
2023/02/13 00:29:29;;;;;;;86.27;27.73;;;;;;;;;;6149156;23;20176;-90
2023/02/13 00:32:35;;;;;;;84.03;28.17;;;;;;;;;;6150516;23;20149;-90
2023/02/13 00:35:43;;;;;;;85.00;28.23;;;;;;;;;;6166738;23;20238;-89
2023/02/13 00:38:51;;;;;;;86.10;27.03;;;;;;;;;;6150269;23;20191;-90
2023/02/13 00:41:57;;;;;;;82.60;27.00;;;;;;;;;;6167828;23;20706;-90
2023/02/13 00:45:03;;;;;;;85.77;28.07;;;;;;;;;;6151111;23;20264;-90
2023/02/13 00:48:08;;;;;;;75.70;27.03;;;;;;;;;;6165958;23;20691;-88
2023/02/13 00:51:14;;;;;;;79.17;27.30;;;;;;;;;;6151478;23;20243;-90
2023/02/13 00:54:21;;;;;;;88.40;27.77;;;;;;;;;;6169470;23;20615;-89
2023/02/13 00:57:26;;;;;;;85.30;27.77;;;;;;;;;;6152041;23;20196;-89
2023/02/13 01:00:34;;;;;;;76.17;25.77;;;;;;;;;;6168362;23;20477;-91
2023/02/13 01:03:40;;;;;;;78.70;26.03;;;;;;;;;;6152427;23;20172;-91
2023/02/13 01:06:45;;;;;;;76.00;26.87;;;;;;;;;;6170592;23;20172;-88
2023/02/13 01:09:52;;;;;;;85.23;26.67;;;;;;;;;;6153279;23;20164;-91
2023/02/13 01:12:57;;;;;;;78.67;26.13;;;;;;;;;;6168025;23;20180;-90
2023/02/13 01:16:03;;;;;;;71.00;25.77;;;;;;;;;;6152759;23;20212;-90
2023/02/13 01:19:12;;;;;;;72.07;25.47;;;;;;;;;;6168326;23;20648;-89
2023/02/13 01:22:17;;;;;;;84.40;26.67;;;;;;;;;;6152238;23;20177;-89
2023/02/13 01:25:24;;;;;;;73.20;25.60;;;;;;;;;;6152210;23;20516;-90
2023/02/13 01:28:29;;;;;;;75.70;23.80;;;;;;;;;;6150947;23;20168;-90
2023/02/13 01:31:34;;;;;;;76.90;25.93;;;;;;;;;;6169741;23;20164;-91
2023/02/13 01:34:39;;;;;;;74.53;25.03;;;;;;;;;;6151923;23;20247;-92
2023/02/13 01:37:44;;;;;;;82.97;26.93;;;;;;;;;;6153252;23;20196;-89
2023/02/13 01:40:53;;;;;;;77.10;26.03;;;;;;;;;;6153948;23;20172;-91
2023/02/13 01:44:03;;;;;;;73.40;24.87;;;;;;;;;;6153150;23;20176;-92
2023/02/13 01:47:09;;;;;;;82.00;26.50;;;;;;;;;;6153351;23;20168;-89
2023/02/13 01:50:17;;;;;;;76.87;25.70;;;;;;;;;;6170251;23;20225;-90
2023/02/13 01:53:26;;;;;;;69.70;24.03;;;;;;;;;;6153078;23;20246;-91
2023/02/13 01:56:35;;;;;;;71.60;25.27;;;;;;;;;;6170444;23;20208;-90
2023/02/13 01:59:45;;;;;;;78.77;27.10;;;;;;;;;;6153770;23;20169;-91
2023/02/13 02:02:52;;;;;;;81.30;26.53;;;;;;;;;;6155302;23;20180;-91
2023/02/13 02:06:02;;;;;;;79.00;27.43;;;;;;;;;;6153793;23;20192;-89
2023/02/13 02:09:11;;;;;;;90.77;29.30;;;;;;;;;;6171191;23;20176;-90
2023/02/13 02:12:23;;;;;;;86.60;28.70;;;;;;;;;;6155139;23;20169;-90
2023/02/13 02:15:29;;;;;;;68.73;24.57;;;;;;;;;;6151782;23;20176;-92
2023/02/13 02:18:47;;;;;;;79.07;26.27;;;;;;;;;;6152966;23;20195;-89
2023/02/13 02:22:11;;;;;;;96.77;28.97;;;;;;;;;;6170108;23;20238;-91
2023/02/13 02:25:30;;;;;;;76.77;25.37;;;;;;;;;;6153635;23;20192;-88
2023/02/13 02:28:54;;;;;;;81.03;27.73;;;;;;;;;;6153961;23;20217;-89
2023/02/13 02:32:15;;;;;;;78.70;27.30;;;;;;;;;;6152509;23;20221;-89
2023/02/13 02:35:26;;;;;;;88.77;27.73;;;;;;;;;;6154273;23;20196;-91
2023/02/13 02:38:52;;;;;;;82.83;26.37;;;;;;;;;;6152972;23;20196;-90
2023/02/13 02:42:02;;;;;;;83.17;26.50;;;;;;;;;;6152058;23;20201;-91
2023/02/13 02:45:12;;;;;;;76.67;26.77;;;;;;;;;;6153191;23;20171;-89
2023/02/13 02:51:50;;;;;;;74.80;24.30;;;;;;;;;;6152491;23;20198;-92
2023/02/13 02:55:07;;;;;;;77.17;25.37;;;;;;;;;;6170213;23;20172;-90
2023/02/13 03:15:32;;;;;;;85.33;26.77;;;;;;;;;;6151407;23;20185;-90
2023/02/13 03:22:19;;;;;;;90.47;29.30;;;;;;;;;;6152830;23;20242;-89
2023/02/13 03:25:33;;;;;;;108.07;30.43;;;;;;;;;;6153022;23;20228;-91
2023/02/13 03:32:08;;;;;;;108.23;30.10;;;;;;;;;;6152482;23;20241;-88
2023/02/13 03:38:47;;;;;;;102.90;30.33;;;;;;;;;;6151656;23;20227;-88
2023/02/13 03:41:56;;;;;;;115.43;31.13;;;;;;;;;;6169803;23;20168;-90
2023/02/13 03:51:54;;;;;;;111.97;29.47;;;;;;;;;;6151840;23;20168;-88
2023/02/13 04:01:57;;;;;;;96.33;29.03;;;;;;;;;;6155364;23;20173;-88
2023/02/13 04:05:05;;;;;;;96.63;28.67;;;;;;;;;;6156258;23;20553;-86
2023/02/13 04:08:11;;;;;;;100.73;30.87;;;;;;;;;;6170231;23;20627;-87
2023/02/13 04:11:22;;;;;;;90.97;28.67;;;;;;;;;;6137511;23;20188;-89
2023/02/13 04:14:32;;;;;;;92.10;29.13;;;;;;;;;;6170629;23;20612;-90
2023/02/13 04:17:40;;;;;;;94.90;28.30;;;;;;;;;;6152719;23;20191;-89
2023/02/13 04:20:54;;;;;;;84.27;26.60;;;;;;;;;;6168493;23;20246;-91
2023/02/13 04:23:59;;;;;;;72.23;25.70;;;;;;;;;;6152374;23;20156;-89
2023/02/13 04:27:04;;;;;;;70.93;24.27;;;;;;;;;;6170525;23;20195;-88
2023/02/13 04:30:12;;;;;;;69.37;24.37;;;;;;;;;;6154681;23;20168;-90
2023/02/13 04:33:17;;;;;;;73.90;24.53;;;;;;;;;;6171192;23;20172;-89
2023/02/13 04:36:22;;;;;;;60.87;21.80;;;;;;;;;;6154273;23;20173;-90
2023/02/13 04:39:27;;;;;;;63.87;22.77;;;;;;;;;;6170382;23;20295;-89
2023/02/13 04:42:32;;;;;;;54.47;22.03;;;;;;;;;;6174338;23;20172;-90
2023/02/13 04:45:39;;;;;;;55.90;20.50;;;;;;;;;;6155738;23;20176;-89
2023/02/13 04:48:44;;;;;;;53.40;20.97;;;;;;;;;;6153420;23;20195;-90
2023/02/13 04:51:49;;;;;;;50.93;20.40;;;;;;;;;;6154857;23;20514;-87
2023/02/13 04:54:54;;;;;;;54.10;20.33;;;;;;;;;;6154634;23;20172;-90
2023/02/13 04:58:00;;;;;;;50.57;19.97;;;;;;;;;;6153222;23;20605;-87
2023/02/13 05:01:18;;;;;;;45.77;19.33;;;;;;;;;;6170571;23;20189;-91
2023/02/13 05:04:24;;;;;;;46.97;19.13;;;;;;;;;;6156273;23;20176;-93
2023/02/13 05:07:30;;;;;;;46.00;19.13;;;;;;;;;;6170826;23;20173;-87
2023/02/13 05:10:35;;;;;;;46.13;17.93;;;;;;;;;;6155652;23;20208;-89
2023/02/13 05:13:40;;;;;;;44.50;18.63;;;;;;;;;;6173294;23;20173;-90
2023/02/13 05:16:45;;;;;;;40.07;17.53;;;;;;;;;;6154609;23;20172;-90
2023/02/13 05:19:52;;;;;;;42.43;18.70;;;;;;;;;;6171784;23;20627;-90
2023/02/13 05:26:20;;;;;;;45.37;18.23;;;;;;;;;;6155354;23;20192;-90
2023/02/13 05:29:26;;;;;;;41.27;18.10;;;;;;;;;;6155517;23;20164;-89
2023/02/13 05:32:32;;;;;;;40.20;17.67;;;;;;;;;;6173305;23;20193;-91
2023/02/13 05:35:38;;;;;;;41.70;17.80;;;;;;;;;;6156684;23;20165;-90
2023/02/13 05:38:44;;;;;;;40.50;18.57;;;;;;;;;;6156739;23;20286;-88
2023/02/13 05:41:50;;;;;;;46.03;18.80;;;;;;;;;;6156276;23;20196;-87
2023/02/13 05:44:55;;;;;;;45.90;19.33;;;;;;;;;;6173331;23;20672;-89
2023/02/13 05:48:00;;;;;;;48.50;19.93;;;;;;;;;;6154555;23;20222;-91
2023/02/13 05:51:06;;;;;;;45.30;19.37;;;;;;;;;;6171899;23;20231;-90
2023/02/13 05:54:12;;;;;;;43.13;18.43;;;;;;;;;;6155693;23;20241;-89
2023/02/13 05:57:18;;;;;;;41.20;18.63;;;;;;;;;;6155484;23;20160;-89
2023/02/13 06:00:48;;;;;;;46.17;19.47;;;;;;;;;;6169973;23;20225;-87
2023/02/13 06:03:54;;;;;;;42.53;19.30;;;;;;;;;;6155999;23;20295;-90
2023/02/13 06:07:01;;;;;;;48.83;20.50;;;;;;;;;;6154427;23;20237;-89
2023/02/13 06:10:06;;;;;;;46.23;19.80;;;;;;;;;;6158394;23;20240;-89
2023/02/13 06:13:12;;;;;;;48.67;20.33;;;;;;;;;;6172027;23;20172;-90
2023/02/13 06:16:17;;;;;;;46.03;19.50;;;;;;;;;;6155568;23;20176;-89
2023/02/13 06:19:31;;;;;;;45.33;18.97;;;;;;;;;;6174223;23;20195;-92
2023/02/13 06:22:38;;;;;;;42.70;18.83;;;;;;;;;;6156855;23;20218;-91
2023/02/13 06:25:45;;;;;;;42.33;18.80;;;;;;;;;;6157328;23;20245;-90
2023/02/13 06:28:50;;;;;;;43.20;19.43;;;;;;;;;;6156837;23;20721;-90
2023/02/13 06:31:56;;;;;;;47.77;21.03;;;;;;;;;;6173977;23;20205;-89
2023/02/13 06:35:03;;;;;;;44.97;19.43;;;;;;;;;;6173909;23;20177;-88
2023/02/13 06:41:30;;;;;;;49.37;20.47;;;;;;;;;;6173674;23;20193;-90
2023/02/13 06:44:36;;;;;;;47.27;20.23;;;;;;;;;;6170393;23;20180;-89
2023/02/13 06:47:42;;;;;;;48.30;20.17;;;;;;;;;;6154850;23;20214;-90
2023/02/13 06:50:48;;;;;;;51.73;21.10;;;;;;;;;;6158831;23;20173;-93
2023/02/13 06:53:54;;;;;;;51.87;20.93;;;;;;;;;;6155192;23;20197;-93
2023/02/13 06:57:03;;;;;;;50.80;20.10;;;;;;;;;;6174087;23;20176;-90
2023/02/13 07:00:17;;;;;;;52.00;20.20;;;;;;;;;;6155763;23;20239;-92
2023/02/13 07:03:22;;;;;;;46.60;20.33;;;;;;;;;;6156492;23;20177;-91
2023/02/13 07:06:36;;;;;;;48.33;20.10;;;;;;;;;;6156043;23;20231;-91
2023/02/13 07:09:43;;;;;;;53.03;20.47;;;;;;;;;;6154144;23;20168;-92
2023/02/13 07:12:49;;;;;;;53.53;21.63;;;;;;;;;;6157727;23;20217;-92
2023/02/13 07:16:02;;;;;;;48.90;20.70;;;;;;;;;;6171904;23;20188;-89
2023/02/13 07:19:12;;;;;;;49.40;20.97;;;;;;;;;;6154393;23;20236;-93
2023/02/13 07:22:18;;;;;;;54.67;21.00;;;;;;;;;;6156490;23;20187;-90
2023/02/13 07:25:25;;;;;;;53.17;20.87;;;;;;;;;;6155335;23;20192;-91
2023/02/13 07:28:30;;;;;;;56.77;21.53;;;;;;;;;;6155406;23;20168;-91
2023/02/13 07:31:37;;;;;;;58.77;22.53;;;;;;;;;;6155224;23;20176;-90
2023/02/13 07:34:43;;;;;;;51.87;21.20;;;;;;;;;;6174154;23;20176;-90
2023/02/13 07:37:50;;;;;;;54.33;20.87;;;;;;;;;;6156450;23;20171;-92
2023/02/13 07:40:59;;;;;;;59.27;22.63;;;;;;;;;;6171730;23;20168;-91
2023/02/13 07:44:05;;;;;;;57.03;22.70;;;;;;;;;;6174521;23;20184;-91
2023/02/13 07:47:13;;;;;;;56.77;21.63;;;;;;;;;;6158452;23;20213;-90
2023/02/13 07:50:20;;;;;;;60.03;22.87;;;;;;;;;;6154523;23;20168;-91
2023/02/13 07:53:26;;;;;;;54.90;21.03;;;;;;;;;;6170915;23;20180;-91
2023/02/13 07:56:33;;;;;;;53.97;21.27;;;;;;;;;;6153159;23;20168;-90
2023/02/13 07:59:39;;;;;;;57.80;23.37;;;;;;;;;;6171390;23;20303;-92
2023/02/13 08:02:44;;;;;;;62.20;23.57;;;;;;;;;;6154616;23;20172;-92
2023/02/13 08:12:39;;;;;;;57.57;22.33;;;;;;;;;;6164643;23;20157;-91
2023/02/13 08:15:45;;;;;;;59.13;22.47;;;;;;;;;;6163279;23;20176;-91
2023/02/13 08:18:50;;;;;;;58.17;22.87;;;;;;;;;;6154360;23;20176;-92
2023/02/13 08:21:55;;;;;;;58.30;22.80;;;;;;;;;;6156815;23;20220;-92
2023/02/13 08:25:01;;;;;;;62.13;23.27;;;;;;;;;;6173133;23;20621;-89
2023/02/13 08:28:08;;;;;;;61.17;23.27;;;;;;;;;;6156752;23;20160;-89
2023/02/13 08:31:14;;;;;;;61.27;23.03;;;;;;;;;;6172375;23;20177;-92
2023/02/13 08:34:23;;;;;;;64.77;23.80;;;;;;;;;;6155558;23;20173;-91
2023/02/13 08:37:29;;;;;;;62.10;23.50;;;;;;;;;;6155981;23;20181;-88
2023/02/13 08:40:34;;;;;;;60.97;22.50;;;;;;;;;;6157013;23;20179;-90
2023/02/13 08:43:42;;;;;;;59.83;23.57;;;;;;;;;;6170051;23;20156;-92
2023/02/13 08:46:48;;;;;;;61.03;24.70;;;;;;;;;;6156177;23;20173;-90
2023/02/13 08:49:56;;;;;;;68.93;24.03;;;;;;;;;;6174339;23;20165;-89
2023/02/13 08:53:01;;;;;;;55.47;22.47;;;;;;;;;;6156591;23;20209;-89
2023/02/13 08:56:08;;;;;;;62.63;22.77;;;;;;;;;;6172698;23;20619;-90
2023/02/13 08:59:15;;;;;;;63.37;23.40;;;;;;;;;;6156874;23;20216;-90
2023/02/13 09:02:21;;;;;;;66.77;26.03;;;;;;;;;;6154994;23;20177;-93
2023/02/13 09:05:26;;;;;;;68.50;26.40;;;;;;;;;;6156013;23;20212;-90
2023/02/13 09:08:35;;;;;;;61.00;24.33;;;;;;;;;;6173150;23;20181;-91
2023/02/13 09:11:40;;;;;;;53.63;23.20;;;;;;;;;;6157894;23;20295;-91
2023/02/13 09:14:48;;;;;;;52.30;20.30;;;;;;;;;;6174908;23;20169;-91
2023/02/13 09:17:53;;;;;;;59.03;23.83;;;;;;;;;;6157781;23;20176;-92
2023/02/13 09:21:00;;;;;;;58.00;23.70;;;;;;;;;;6173328;23;20212;-91
2023/02/13 09:24:07;;;;;;;51.33;21.60;;;;;;;;;;6158054;23;20252;-90
2023/02/13 09:27:13;;;;;;;46.37;20.20;;;;;;;;;;6174093;23;20237;-91
2023/02/13 09:30:23;;;;;;;51.33;21.73;;;;;;;;;;6157135;23;20168;-89
2023/02/13 09:33:28;;;;;;;51.83;22.17;;;;;;;;;;6174370;23;20239;-92
2023/02/13 09:36:35;;;;;;;50.50;21.70;;;;;;;;;;6157410;23;20285;-89
2023/02/13 09:39:40;;;;;;;48.60;21.03;;;;;;;;;;6158009;23;20200;-89
2023/02/13 09:42:46;;;;;;;48.80;21.43;;;;;;;;;;6155972;23;20172;-91
2023/02/13 09:45:56;;;;;;;50.93;21.10;;;;;;;;;;6171725;23;20184;-93
2023/02/13 09:49:06;;;;;;;45.63;20.73;;;;;;;;;;6155571;23;20674;-91
2023/02/13 09:52:14;;;;;;;45.57;21.00;;;;;;;;;;6154750;23;20251;-91
2023/02/13 09:55:21;;;;;;;50.30;21.80;;;;;;;;;;6156626;23;20187;-92
2023/02/13 09:58:34;;;;;;;47.73;21.13;;;;;;;;;;6156654;23;20245;-91
2023/02/13 10:01:44;;;;;;;48.83;21.97;;;;;;;;;;6173919;23;20168;-90
2023/02/13 10:04:54;;;;;;;50.73;21.90;;;;;;;;;;6158068;23;20202;-92
2023/02/13 10:08:04;;;;;;;50.23;22.33;;;;;;;;;;6173232;23;20197;-91
2023/02/13 10:11:13;;;;;;;51.50;20.90;;;;;;;;;;6157913;23;20172;-93
2023/02/13 10:14:20;;;;;;;46.97;21.63;;;;;;;;;;6156244;23;20222;-90
2023/02/13 10:17:30;;;;;;;47.83;21.77;;;;;;;;;;6172819;23;20176;-91
2023/02/13 10:20:41;;;;;;;49.33;21.53;;;;;;;;;;6159187;23;20563;-90
2023/02/13 10:23:48;;;;;;;49.67;21.03;;;;;;;;;;6159281;23;20221;-92
2023/02/13 10:26:54;;;;;;;52.77;22.27;;;;;;;;;;6157254;23;20216;-91
2023/02/13 10:30:08;;;;;;;50.33;21.30;;;;;;;;;;6156930;23;20163;-89
2023/02/13 10:36:41;;;;;;;54.17;22.50;;;;;;;;;;6156579;23;20193;-90
2023/02/13 10:39:50;;;;;;;56.67;24.33;;;;;;;;;;6175408;23;20180;-93
2023/02/13 10:43:07;;;;;;;51.80;22.93;;;;;;;;;;6157153;23;20184;-90
2023/02/13 10:46:18;;;;;;;56.10;22.80;;;;;;;;;;6157630;23;20177;-91
2023/02/13 10:49:38;;;;;;;53.53;23.10;;;;;;;;;;6158038;23;20221;-91
2023/02/13 10:52:52;;;;;;;56.63;24.73;;;;;;;;;;6159559;23;20173;-91
2023/02/13 10:56:08;;;;;;;57.67;23.43;;;;;;;;;;6158047;23;20181;-90
2023/02/13 10:59:23;;;;;;;50.57;21.77;;;;;;;;;;6158260;23;20173;-90
2023/02/13 11:02:30;;;;;;;52.90;23.50;;;;;;;;;;6158440;23;20172;-91
2023/02/13 11:05:38;;;;;;;56.33;23.67;;;;;;;;;;6157025;23;20514;-91
2023/02/13 11:08:47;;;;;;;55.90;23.90;;;;;;;;;;6157198;23;20169;-90
2023/02/13 11:11:53;;;;;;;58.20;23.50;;;;;;;;;;6157934;23;20172;-90
2023/02/13 11:14:59;;;;;;;57.43;23.23;;;;;;;;;;6160102;23;20193;-89
2023/02/13 11:18:14;;;;;;;53.50;23.00;;;;;;;;;;6157947;23;20160;-90
2023/02/13 11:21:23;;;;;;;53.83;24.20;;;;;;;;;;6156627;23;20191;-92
2023/02/13 11:24:31;;;;;;;56.47;23.50;;;;;;;;;;6174131;23;20165;-93
2023/02/13 11:27:37;;;;;;;58.27;23.33;;;;;;;;;;6158277;23;20181;-92
2023/02/13 11:30:43;;;;;;;60.67;23.50;;;;;;;;;;6173614;23;20173;-90
2023/02/13 11:33:48;;;;;;;61.50;24.73;;;;;;;;;;6158269;23;20668;-90
2023/02/13 11:36:56;;;;;;;57.67;23.73;;;;;;;;;;6157653;23;20173;-91
2023/02/13 11:40:32;;;;;;;59.83;24.23;;;;;;;;;;6161180;23;20224;-89
2023/02/13 11:43:48;;;;;;;55.20;23.50;;;;;;;;;;6172816;23;20173;-90
2023/02/13 11:46:55;;;;;;;55.80;24.53;;;;;;;;;;6176403;23;20169;-90
2023/02/13 11:50:01;;;;;;;60.80;24.97;;;;;;;;;;6158370;23;20169;-90
2023/02/13 11:53:08;;;;;;;59.47;23.60;;;;;;;;;;6158735;23;20192;-92
2023/02/13 11:56:15;;;;;;;56.40;23.50;;;;;;;;;;6159648;23;20173;-91
2023/02/13 11:59:24;;;;;;;59.40;24.13;;;;;;;;;;6158659;23;20172;-91
2023/02/13 12:02:30;;;;;;;55.03;23.37;;;;;;;;;;6175385;23;20221;-89
2023/02/13 12:05:37;;;;;;;55.97;22.87;;;;;;;;;;6175755;23;20173;-89
2023/02/13 12:08:47;;;;;;;55.27;23.53;;;;;;;;;;6161794;23;20197;-89
2023/02/13 12:11:55;;;;;;;51.73;22.63;;;;;;;;;;6160364;23;20221;-92
2023/02/13 12:15:03;;;;;;;48.87;21.17;;;;;;;;;;6156763;23;20176;-91
2023/02/13 12:18:13;;;;;;;50.33;21.73;;;;;;;;;;6157642;23;20172;-90
2023/02/13 12:21:26;;;;;;;54.97;22.73;;;;;;;;;;6158356;23;20193;-91
2023/02/13 12:24:40;;;;;;;55.40;23.20;;;;;;;;;;6174473;23;20205;-90
2023/02/13 12:27:49;;;;;;;57.07;22.73;;;;;;;;;;6155364;23;20173;-90
2023/02/13 12:31:17;;;;;;;58.90;22.93;;;;;;;;;;6173079;23;20164;-92
2023/02/13 12:34:43;;;;;;;54.57;22.67;;;;;;;;;;6156527;23;20163;-90
2023/02/13 12:37:55;;;;;;;55.37;22.90;;;;;;;;;;6175087;23;20222;-90
2023/02/13 12:41:14;;;;;;;53.23;23.37;;;;;;;;;;6159767;23;20183;-92
2023/02/13 12:44:27;;;;;;;59.73;24.30;;;;;;;;;;6175456;23;20160;-91
2023/02/13 12:47:39;;;;;;;55.20;24.30;;;;;;;;;;6160905;23;20680;-92
2023/02/13 12:50:50;;;;;;;54.27;23.07;;;;;;;;;;6176043;23;20178;-92
2023/02/13 12:54:13;;;;;;;60.80;23.37;;;;;;;;;;6157970;23;20228;-91
2023/02/13 12:57:23;;;;;;;54.03;22.23;;;;;;;;;;6157407;23;20176;-93
2023/02/13 13:00:36;;;;;;;52.37;22.70;;;;;;;;;;6158554;23;20196;-92
2023/02/13 13:03:45;;;;;;;54.33;24.00;;;;;;;;;;6159526;23;20168;-92
2023/02/13 13:06:56;;;;;;;54.57;24.03;;;;;;;;;;6161373;23;20220;-89
2023/02/13 13:10:11;;;;;;;58.10;23.67;;;;;;;;;;6176303;23;20180;-90
2023/02/13 13:13:23;;;;;;;54.00;23.30;;;;;;;;;;6159921;23;20180;-89
2023/02/13 13:16:34;;;;;;;56.47;23.83;;;;;;;;;;6176238;23;20176;-91
2023/02/13 13:19:49;;;;;;;54.03;24.17;;;;;;;;;;6158767;23;20172;-90
2023/02/13 13:22:58;;;;;;;49.97;22.07;;;;;;;;;;6178220;23;20218;-89
2023/02/13 13:26:10;;;;;;;52.70;22.03;;;;;;;;;;6161925;23;20229;-89
2023/02/13 13:55:51;;;;;;;53.40;23.33;;;;;;;;;;6189933;23;20216;-91
2023/02/13 13:59:02;;;;;;;56.90;23.43;;;;;;;;;;6192034;23;20192;-89
2023/02/13 14:06:00;;;;;;;59.40;23.93;;;;;;;;;;6191716;23;20160;-91
2023/02/13 14:09:26;;;;;;;53.27;23.20;;;;;;;;;;6208054;23;20615;-91
2023/02/13 14:12:39;;;;;;;53.50;22.07;;;;;;;;;;6207068;23;20242;-89
2023/02/13 14:15:55;;;;;;;55.03;23.03;;;;;;;;;;6189472;23;20219;-91
2023/02/13 14:19:00;;;;;;;56.07;23.27;;;;;;;;;;6188735;23;20172;-91
2023/02/13 14:22:26;;;;;;;54.60;23.07;;;;;;;;;;6206127;23;20256;-91
2023/02/13 14:25:32;;;;;;;54.67;22.67;;;;;;;;;;6187390;23;20227;-90
2023/02/13 14:28:42;;;;;;;53.77;23.43;;;;;;;;;;6204298;23;20231;-92
2023/02/13 14:31:58;;;;;;;55.47;22.53;;;;;;;;;;6204389;23;20168;-90
2023/02/13 14:35:06;;;;;;;54.93;23.07;;;;;;;;;;6184845;23;20175;-90
2023/02/13 14:38:26;;;;;;;57.77;22.73;;;;;;;;;;6184787;23;20188;-93
2023/02/13 14:41:48;;;;;;;55.67;23.33;;;;;;;;;;6184019;23;20731;-91
2023/02/13 14:44:55;;;;;;;59.57;23.37;;;;;;;;;;6185075;23;20278;-87
2023/02/13 14:48:06;;;;;;;52.17;22.43;;;;;;;;;;6204530;23;20171;-90
2023/02/13 14:51:18;;;;;;;61.50;22.70;;;;;;;;;;6188699;23;20224;-91
2023/02/13 14:54:27;;;;;;;66.40;24.30;;;;;;;;;;6203548;23;20208;-91
2023/02/13 14:57:35;;;;;;;53.07;22.33;;;;;;;;;;6187070;23;20160;-90
2023/02/13 15:00:44;;;;;;;55.53;22.83;;;;;;;;;;6187195;23;20196;-91
2023/02/13 15:07:27;;;;;;;65.37;25.57;;;;;;;;;;6184681;23;20584;-89
2023/02/13 15:10:36;;;;;;;54.30;23.47;;;;;;;;;;6187442;23;20180;-91
2023/02/13 15:13:42;;;;;;;57.90;23.53;;;;;;;;;;6184300;23;20655;-91
2023/02/13 15:16:51;;;;;;;55.50;23.07;;;;;;;;;;6201834;23;20175;-92
2023/02/13 15:20:16;;;;;;;59.93;24.47;;;;;;;;;;6201367;23;20167;-92
2023/02/13 15:23:25;;;;;;;52.93;21.90;;;;;;;;;;6184093;23;20184;-91
2023/02/13 15:26:30;;;;;;;52.97;22.87;;;;;;;;;;6203269;23;20179;-90
2023/02/13 15:29:36;;;;;;;74.30;28.00;;;;;;;;;;6186264;23;20239;-92
2023/02/13 15:32:42;;;;;;;74.20;29.77;;;;;;;;;;6202901;23;20193;-90
2023/02/13 15:35:55;;;;;;;61.30;26.80;;;;;;;;;;6186766;23;20160;-91
2023/02/13 15:39:06;;;;;;;60.47;25.47;;;;;;;;;;6185240;23;20173;-88
2023/02/13 15:42:12;;;;;;;60.40;24.20;;;;;;;;;;6184750;23;20191;-90
2023/02/13 15:45:18;;;;;;;56.43;23.03;;;;;;;;;;6202301;23;20250;-91
2023/02/13 15:48:25;;;;;;;57.80;25.73;;;;;;;;;;6187858;23;20172;-90
2023/02/13 15:51:32;;;;;;;56.63;23.77;;;;;;;;;;6183235;23;20167;-89
2023/02/13 15:54:48;;;;;;;57.00;23.40;;;;;;;;;;6183974;23;20195;-91
2023/02/13 15:57:56;;;;;;;59.57;24.43;;;;;;;;;;6186800;23;20172;-90
2023/02/13 16:01:04;;;;;;;54.27;22.77;;;;;;;;;;6185133;23;20240;-93
2023/02/13 16:04:10;;;;;;;63.03;24.20;;;;;;;;;;6201687;23;20213;-90
2023/02/13 16:07:16;;;;;;;72.07;27.90;;;;;;;;;;6184696;23;20238;-92
2023/02/13 16:10:37;;;;;;;65.87;26.20;;;;;;;;;;6200368;23;20203;-92
2023/02/13 16:14:08;;;;;;;66.13;26.23;;;;;;;;;;6182173;23;20176;-91
2023/02/13 16:17:16;;;;;;;70.90;28.60;;;;;;;;;;6200051;23;20224;-92
2023/02/13 16:20:53;;;;;;;67.47;29.10;;;;;;;;;;6184204;23;20198;-91
2023/02/13 16:24:00;;;;;;;67.47;28.63;;;;;;;;;;6202225;23;20163;-92
2023/02/13 16:27:13;;;;;;;67.17;26.90;;;;;;;;;;6183037;23;20239;-94
2023/02/13 16:30:27;;;;;;;187.37;57.00;;;;;;;;;;6185529;23;20233;-90
2023/02/13 16:33:34;;;;;;;84.73;30.83;;;;;;;;;;6201573;23;20195;-91
2023/02/13 16:36:39;;;;;;;59.90;24.20;;;;;;;;;;6185287;23;20225;-91
2023/02/13 16:39:44;;;;;;;60.73;24.57;;;;;;;;;;6202121;23;20687;-92
2023/02/13 16:42:52;;;;;;;62.27;25.60;;;;;;;;;;6186413;23;20199;-90
2023/02/13 16:46:10;;;;;;;57.63;24.20;;;;;;;;;;6185200;23;20176;-89
2023/02/13 16:49:17;;;;;;;64.00;25.63;;;;;;;;;;6185703;23;20168;-90
2023/02/13 16:52:25;;;;;;;64.40;26.30;;;;;;;;;;6185392;23;20168;-90
2023/02/13 16:55:31;;;;;;;67.63;26.73;;;;;;;;;;6184036;23;20261;-90
2023/02/13 16:58:38;;;;;;;63.27;25.77;;;;;;;;;;6185231;23;20196;-89
2023/02/13 17:02:22;;;;;;;64.57;25.23;;;;;;;;;;6186467;23;20190;-90
2023/02/13 17:05:29;;;;;;;59.67;25.37;;;;;;;;;;6169081;23;20171;-91
2023/02/13 17:08:37;;;;;;;62.73;25.43;;;;;;;;;;6185587;23;20180;-91
2023/02/13 17:12:21;;;;;;;58.23;24.67;;;;;;;;;;6187325;23;20168;-89
2023/02/13 17:15:32;;;;;;;60.77;24.60;;;;;;;;;;6202626;23;20608;-91
2023/02/13 17:18:38;;;;;;;59.53;25.20;;;;;;;;;;6186586;23;20249;-90
2023/02/13 17:21:43;;;;;;;58.93;24.73;;;;;;;;;;6184957;23;20199;-90
2023/02/13 17:24:49;;;;;;;57.77;25.17;;;;;;;;;;6203450;23;20211;-91
2023/02/13 17:27:55;;;;;;;94.77;38.27;;;;;;;;;;6184851;23;20163;-90
2023/02/13 17:31:02;;;;;;;57.10;24.77;;;;;;;;;;6203411;23;20212;-93
2023/02/13 17:34:08;;;;;;;57.20;25.00;;;;;;;;;;6186926;23;20231;-91
2023/02/13 17:37:21;;;;;;;57.73;23.10;;;;;;;;;;6185549;23;20192;-92
2023/02/13 17:40:29;;;;;;;54.57;23.90;;;;;;;;;;6185209;23;20191;-93
2023/02/13 17:43:34;;;;;;;67.00;28.37;;;;;;;;;;6200492;23;20176;-91
2023/02/13 17:46:41;;;;;;;71.20;28.83;;;;;;;;;;6184405;23;20176;-89
2023/02/13 17:49:46;;;;;;;73.00;30.00;;;;;;;;;;6201137;23;20159;-91
2023/02/13 17:52:52;;;;;;;60.40;24.97;;;;;;;;;;6182606;23;20221;-92
2023/02/13 17:55:58;;;;;;;60.40;25.50;;;;;;;;;;6182994;23;20183;-91
2023/02/13 17:59:03;;;;;;;67.43;27.70;;;;;;;;;;6182406;23;20176;-89
2023/02/13 18:02:15;;;;;;;71.33;27.97;;;;;;;;;;6201519;23;20195;-90
2023/02/13 18:05:21;;;;;;;62.17;26.37;;;;;;;;;;6185064;23;20176;-89
2023/02/13 18:08:31;;;;;;;69.70;27.87;;;;;;;;;;6185430;23;20548;-91
2023/02/13 18:11:38;;;;;;;62.63;27.00;;;;;;;;;;6185662;23;20168;-91
2023/02/13 18:14:44;;;;;;;75.10;28.57;;;;;;;;;;6201077;23;20313;-89
2023/02/13 18:17:50;;;;;;;60.97;25.60;;;;;;;;;;6184755;23;20176;-90
2023/02/13 18:20:56;;;;;;;65.57;26.87;;;;;;;;;;6201612;23;20232;-92
2023/02/13 18:24:01;;;;;;;64.50;27.07;;;;;;;;;;6184263;23;20168;-89
2023/02/13 18:27:07;;;;;;;66.97;27.87;;;;;;;;;;6184984;23;20215;-89
2023/02/13 18:30:13;;;;;;;61.73;25.97;;;;;;;;;;6186985;23;20683;-90
2023/02/13 18:33:21;;;;;;;62.27;25.93;;;;;;;;;;6186849;23;20163;-89
2023/02/13 18:36:27;;;;;;;65.30;26.30;;;;;;;;;;6184631;23;20174;-89
2023/02/13 18:39:34;;;;;;;63.23;27.07;;;;;;;;;;6201052;23;20267;-89
2023/02/13 18:42:40;;;;;;;63.77;25.97;;;;;;;;;;6183925;23;20199;-90
2023/02/13 18:45:45;;;;;;;65.40;26.83;;;;;;;;;;6185903;23;20235;-90
2023/02/13 18:48:55;;;;;;;67.97;27.33;;;;;;;;;;6186238;23;20176;-89
2023/02/13 18:52:01;;;;;;;65.50;27.07;;;;;;;;;;6186213;23;20171;-88
2023/02/13 18:55:08;;;;;;;67.67;28.53;;;;;;;;;;6183142;23;20194;-91
2023/02/13 18:58:13;;;;;;;62.63;26.43;;;;;;;;;;6184078;23;20160;-90
2023/02/13 19:01:20;;;;;;;65.10;25.73;;;;;;;;;;6183682;23;20220;-89
2023/02/13 19:04:29;;;;;;;66.70;26.90;;;;;;;;;;6182572;23;20248;-90
2023/02/13 19:07:35;;;;;;;66.63;26.83;;;;;;;;;;6183379;23;20501;-91
2023/02/13 19:10:41;;;;;;;68.13;27.33;;;;;;;;;;6201486;23;20679;-91
2023/02/13 19:14:16;;;;;;;63.03;26.50;;;;;;;;;;6185807;23;20374;-90
2023/02/13 19:17:21;;;;;;;59.00;24.73;;;;;;;;;;6184050;23;20243;-90
2023/02/13 19:20:37;;;;;;;64.63;27.53;;;;;;;;;;6183443;23;20223;-90
2023/02/13 19:23:42;;;;;;;65.17;27.47;;;;;;;;;;6185785;23;20195;-91
2023/02/13 19:26:48;;;;;;;61.60;26.90;;;;;;;;;;6200110;23;20227;-89
2023/02/13 19:29:53;;;;;;;62.70;25.27;;;;;;;;;;6183224;23;20179;-90
2023/02/13 19:32:59;;;;;;;68.97;28.17;;;;;;;;;;6182881;23;20188;-90
2023/02/13 19:36:08;;;;;;;63.07;25.57;;;;;;;;;;6182461;23;20172;-89
2023/02/13 19:39:13;;;;;;;61.63;25.20;;;;;;;;;;6181154;23;20171;-91
2023/02/13 19:42:19;;;;;;;58.97;24.70;;;;;;;;;;6186964;23;20215;-91
2023/02/13 19:45:26;;;;;;;65.80;27.23;;;;;;;;;;6186373;23;20168;-93
2023/02/13 19:48:32;;;;;;;62.43;25.50;;;;;;;;;;6186927;23;20215;-92
2023/02/13 19:51:41;;;;;;;61.57;27.17;;;;;;;;;;6204475;23;20238;-91
2023/02/13 19:54:46;;;;;;;62.80;27.43;;;;;;;;;;6186762;23;20249;-90